Private Wetterstation Nrnberg - Katzwang
Wetterdaten: Dezember 2015
Datum Temp. A. Feuchte A. Luftdruck Regen Wind Richtung Taupunkt Windchill Windben
01.12.2015 9,5 C 84 % 1021 hPa 2,1 l/m 27,9 km/h W-NW 7,0 C 1,2 C 36,1 km/h
02.12.2015 9,1 C 83 % 1026 hPa 0,0 l/m 3,8 km/h W-NW 6,4 C 8,1 C 3,2 km/h
03.12.2015 5,5 C 82 % 1027 hPa 0,0 l/m 2,6 km/h S 2,7 C 4,8 C 2,1 km/h
04.12.2015 3,1 C 85 % 1028 hPa 0,5 l/m 3,2 km/h S 0,9 C 1,9 C 2,7 km/h
05.12.2015 5,5 C 85 % 1029 hPa 0,0 l/m 1,3 km/h S 3,1 C 5,1 C 1,1 km/h
06.12.2015 4,7 C 85 % 1027 hPa 0,5 l/m 4,9 km/h S 2,3 C 3,1 C 4,1 km/h
07.12.2015 5,9 C 83 % 1030 hPa 0,0 l/m 1,9 km/h S-SO 3,2 C 5,5 C 1,6 km/h
08.12.2015 2,0 C 85 % 1029 hPa 0,0 l/m 3,7 km/h S -0,2 C 0,7 C 3,1 km/h
09.12.2015 4,2 C 85 % 1032 hPa 3,6 l/m 3,8 km/h N-NW 2,0 C 3,0 C 3,1 km/h
10.12.2015 1,8 C 86 % 1033 hPa 0,5 l/m 6,2 km/h S -0,3 C -0,4 C 5,1 km/h
11.12.2015 2,9 C 83 % 1025 hPa 0,0 l/m 7,1 km/h S-SW 0,3 C 0,3 C 6,0 km/h
12.12.2015 6,9 C 83 % 1021 hPa 1,0 l/m 7,1 km/h W-SW 4,2 C 4,7 C 6,1 km/h
13.12.2015 7,0 C 83 % 1018 hPa 0,0 l/m 6,5 km/h W-NW 4,4 C 4,9 C 5,8 km/h
14.12.2015 6,2 C 84 % 1021 hPa 0,0 l/m 5,9 km/h S 3,7 C 4,3 C 4,9 km/h
15.12.2015 5,1 C 84 % 1022 hPa 0,0 l/m 2,4 km/h S 2,5 C 4,4 C 2,0 km/h
16.12.2015 5,5 C 85 % 1025 hPa 2,1 l/m 2,6 km/h S 3,1 C 4,8 C 2,1 km/h
17.12.2015 9,9 C 85 % 1024 hPa 1,6 l/m 2,0 km/h SW 7,6 C 9,5 C 1,7 km/h
18.12.2015 8,4 C 86 % 1022 hPa 1,6 l/m 1,9 km/h S-SO 6,1 C 7,8 C 1,6 km/h
19.12.2015 7,7 C 85 % 1022 hPa 0,0 l/m 2,7 km/h S-SO 5,4 C 7,0 C 2,3 km/h
20.12.2015 4,7 C 85 % 1020 hPa 0,0 l/m 7,2 km/h S 2,4 C 2,3 C 5,9 km/h
21.12.2015 5,9 C 84 % 1023 hPa 2,1 l/m 7,3 km/h S-SO 3,5 C 3,7 C 6,1 km/h
22.12.2015 9,0 C 79 % 1025 hPa 0,0 l/m 6,7 km/h W-SW 5,5 C 7,1 C 5,8 km/h
23.12.2015 7,2 C 82 % 1026 hPa 0,0 l/m 3,6 km/h S-SO 4,4 C 6,1 C 3,0 km/h
24.12.2015 8,3 C 81 % 1024 hPa 0,0 l/m 4,3 km/h S 5,1 C 7,0 C 3,6 km/h
25.12.2015 9,0 C 80 % 1027 hPa 0,0 l/m 3,0 km/h S 5,7 C 8,4 C 2,5 km/h
26.12.2015 7,4 C 80 % 1027 hPa 0,0 l/m 3,3 km/h S 4,1 C 6,6 C 2,7 km/h
27.12.2015 3,8 C 83 % 1028 hPa 0,0 l/m 1,2 km/h S-SO 1,2 C 3,5 C 1,0 km/h
28.12.2015 1,9 C 84 % 1028 hPa 0,0 l/m 0,1 km/h S-SO -0,6 C 1,8 C 0,1 km/h
29.12.2015 0,8 C 85 % 1026 hPa 0,0 l/m 0,0 km/h S -1,4 C 0,8 C 0,0 km/h
30.12.2015 2,7 C 84 % 1026 hPa 0,0 l/m 5,6 km/h S-SO 0,3 C 0,7 C 4,8 km/h
31.12.2015 0,0 C 85 % 1022 hPa 1,0 l/m 4,3 km/h S-SO -2,2 C -1,6 C 3,5 km/h
Min-Datum 29.12.15 24.12.15 01.12.15 11 Tage 01.12.15 - 29.12.15 11.12.15 01.12.15
Min-Zeit 08:00 13:00 00:00 - 23:20 - 08:00 03:40 23:20
Minimum -3,5 C 64 % 1016 hPa - 0,0 km/h - -5,6 C -15,0 C 0,0 km/h
Max-Datum 25.12.15 03.12.15 09.12.15 09.12.15 01.12.15 - 17.12.15 25.12.15 01.12.15
Max-Zeit 13:50 19:40 20:40 08:00 03:10 - 14:00 13:50 03:10
Maximum 14,8 C 86 % 1037 hPa 3,6 l/m 75,6 km/h
W-NW
- 9,8 C 14,8 C 112,8 km/h
W-NW
Durchschnitt 5,5 C 84 % 1025 hPa #16,6 l/m 4,6 km/h S 3,0 C 4,1 C 4,3 km/h

Durchschnitt Minimum Temp.2,2 C
Durchschnitt Maximum Temp.9,5 C